CEB819 RPLL-RPMD
Flight info
| Callsign | CEB819 |
|---|---|
| Flight time | N/A |
| Altitude | 35000 |
| Route | IPATA2R IPATA B462 MASBA W9A BN W9 RIMAR RIMAR2R |
| Aircraft | A20N/M-SDE2E3FGHIRWXY/LB1 |
Departure
| Time | 2026-05-07 05:16 |
|---|---|
| Airport | Ninoy Aquino International Airport (RPLL) |
Arrival
| Time | N/A |
|---|---|
| Airport | Francisco Bangoy International Airport (RPMD) |
| Time | Latitude | Longitude | Altitude | Speed | Heading |
|---|---|---|---|---|---|
| 2026-05-07 04:54 | 14.50437 | 121.00506 | 40 ft | 0 kts | 307° |
| 2026-05-07 05:07 | 14.50433 | 121.00510 | 41 ft | 1 kts | 305° |
| 2026-05-07 05:07 | 14.50429 | 121.00517 | 41 ft | 1 kts | 301° |
| 2026-05-07 05:07 | 14.50425 | 121.00524 | 39 ft | 1 kts | 299° |
| 2026-05-07 05:07 | 14.50421 | 121.00531 | 41 ft | 1 kts | 305° |
| 2026-05-07 05:08 | 14.50416 | 121.00537 | 41 ft | 1 kts | 313° |
| 2026-05-07 05:08 | 14.50411 | 121.00543 | 41 ft | 2 kts | 309° |
| 2026-05-07 05:08 | 14.50400 | 121.00562 | 40 ft | 3 kts | 282° |
| 2026-05-07 05:08 | 14.50403 | 121.00587 | 41 ft | 2 kts | 242° |
| 2026-05-07 05:09 | 14.50383 | 121.00581 | 39 ft | 0 kts | 165° |
| 2026-05-07 05:09 | 14.50354 | 121.00584 | 40 ft | 4 kts | 194° |
| 2026-05-07 05:09 | 14.50336 | 121.00570 | 40 ft | 0 kts | 228° |
| 2026-05-07 05:09 | 14.50335 | 121.00570 | 40 ft | 0 kts | 228° |
| 2026-05-07 05:10 | 14.50333 | 121.00567 | 40 ft | 1 kts | 228° |
| 2026-05-07 05:10 | 14.50331 | 121.00564 | 40 ft | 0 kts | 227° |
| 2026-05-07 05:11 | 14.50330 | 121.00564 | 40 ft | 1 kts | 227° |
| 2026-05-07 05:11 | 14.50313 | 121.00543 | 40 ft | 7 kts | 238° |
| 2026-05-07 05:11 | 14.50300 | 121.00516 | 40 ft | 8 kts | 242° |
| 2026-05-07 05:11 | 14.50257 | 121.00433 | 39 ft | 17 kts | 241° |
| 2026-05-07 05:12 | 14.50156 | 121.00347 | 38 ft | 22 kts | 195° |
| 2026-05-07 05:12 | 14.50075 | 121.00254 | 37 ft | 19 kts | 239° |
| 2026-05-07 05:12 | 14.50002 | 121.00124 | 36 ft | 22 kts | 241° |
| 2026-05-07 05:12 | 14.49937 | 121.00007 | 35 ft | 0 kts | 240° |
| 2026-05-07 05:13 | 14.49932 | 120.99998 | 35 ft | 3 kts | 240° |
| 2026-05-07 05:13 | 14.49908 | 120.99973 | 35 ft | 4 kts | 204° |
| 2026-05-07 05:13 | 14.49903 | 120.99971 | 35 ft | 1 kts | 202° |
| 2026-05-07 05:13 | 14.49897 | 120.99970 | 35 ft | 2 kts | 193° |
| 2026-05-07 05:14 | 14.49885 | 120.99969 | 35 ft | 8 kts | 186° |
| 2026-05-07 05:14 | 14.49843 | 120.99991 | 35 ft | 9 kts | 152° |
| 2026-05-07 05:14 | 14.49801 | 121.00042 | 35 ft | 9 kts | 88° |
| 2026-05-07 05:14 | 14.49815 | 121.00066 | 33 ft | 1 kts | 59° |
| 2026-05-07 05:15 | 14.49816 | 121.00068 | 34 ft | 0 kts | 59° |
| 2026-05-07 05:15 | 14.49910 | 121.00237 | 35 ft | 64 kts | 61° |
| 2026-05-07 05:16 | 14.50238 | 121.00835 | 41 ft | 124 kts | 60° |
| 2026-05-07 05:16 | 14.50736 | 121.01758 | 93 ft | 163 kts | 60° |
| 2026-05-07 05:16 | 14.51295 | 121.02731 | 783 ft | 156 kts | 61° |
| 2026-05-07 05:16 | 14.51848 | 121.03719 | 1316 ft | 164 kts | 61° |
| 2026-05-07 05:17 | 14.52415 | 121.04743 | 1935 ft | 167 kts | 61° |
| 2026-05-07 05:17 | 14.53021 | 121.05844 | 2384 ft | 184 kts | 61° |
| 2026-05-07 05:17 | 14.53685 | 121.07048 | 2763 ft | 202 kts | 61° |
| 2026-05-07 05:17 | 14.54411 | 121.08358 | 3049 ft | 224 kts | 61° |
| 2026-05-07 05:18 | 14.55221 | 121.09821 | 3395 ft | 244 kts | 61° |
| 2026-05-07 05:18 | 14.56100 | 121.11404 | 3795 ft | 261 kts | 61° |
| 2026-05-07 05:18 | 14.56929 | 121.13086 | 4503 ft | 262 kts | 70° |
| 2026-05-07 05:18 | 14.57405 | 121.14878 | 5153 ft | 265 kts | 81° |
| 2026-05-07 05:19 | 14.57617 | 121.16781 | 5774 ft | 267 kts | 84° |
| 2026-05-07 05:19 | 14.57824 | 121.18699 | 6366 ft | 270 kts | 83° |
| 2026-05-07 05:19 | 14.58043 | 121.20650 | 6617 ft | 274 kts | 83° |
| 2026-05-07 05:19 | 14.58267 | 121.22612 | 6723 ft | 275 kts | 83° |
| 2026-05-07 05:20 | 14.58408 | 121.24594 | 7152 ft | 277 kts | 95° |
| 2026-05-07 05:20 | 14.57860 | 121.26464 | 7662 ft | 282 kts | 119° |
| 2026-05-07 05:20 | 14.56537 | 121.27959 | 8183 ft | 284 kts | 141° |
| 2026-05-07 05:20 | 14.54937 | 121.29177 | 8674 ft | 288 kts | 143° |
| 2026-05-07 05:21 | 14.53311 | 121.30397 | 9175 ft | 289 kts | 142° |
| 2026-05-07 05:21 | 14.50056 | 121.32862 | 9993 ft | 295 kts | 142° |
| 2026-05-07 05:21 | 14.48379 | 121.34144 | 10159 ft | 305 kts | 142° |
| 2026-05-07 05:22 | 14.46648 | 121.35472 | 10263 ft | 316 kts | 142° |
| 2026-05-07 05:22 | 14.44852 | 121.36849 | 10356 ft | 327 kts | 142° |
| 2026-05-07 05:22 | 14.43020 | 121.38252 | 10458 ft | 337 kts | 142° |
| 2026-05-07 05:22 | 14.41112 | 121.39713 | 10590 ft | 344 kts | 142° |
| 2026-05-07 05:23 | 14.39190 | 121.41182 | 10945 ft | 343 kts | 142° |
| 2026-05-07 05:23 | 14.37265 | 121.42655 | 11160 ft | 346 kts | 142° |
| 2026-05-07 05:23 | 14.35315 | 121.44149 | 11411 ft | 348 kts | 142° |
| 2026-05-07 05:23 | 14.33390 | 121.45622 | 11686 ft | 349 kts | 142° |
| 2026-05-07 05:24 | 14.31432 | 121.47119 | 11965 ft | 349 kts | 142° |
| 2026-05-07 05:24 | 14.29470 | 121.48621 | 12168 ft | 351 kts | 142° |
| 2026-05-07 05:24 | 14.28170 | 121.49616 | 12351 ft | 352 kts | 142° |
| 2026-05-07 05:24 | 14.26194 | 121.51126 | 12556 ft | 353 kts | 142° |
| 2026-05-07 05:25 | 14.23570 | 121.53130 | 12929 ft | 353 kts | 142° |
| 2026-05-07 05:25 | 14.21603 | 121.54632 | 13075 ft | 357 kts | 142° |
| 2026-05-07 05:25 | 14.19651 | 121.56121 | 13333 ft | 357 kts | 142° |
| 2026-05-07 05:25 | 14.17639 | 121.57658 | 13489 ft | 361 kts | 142° |
| 2026-05-07 05:26 | 14.16302 | 121.58677 | 13670 ft | 360 kts | 142° |
| 2026-05-07 05:26 | 14.14281 | 121.60218 | 13921 ft | 360 kts | 142° |
| 2026-05-07 05:26 | 14.12258 | 121.61762 | 14066 ft | 362 kts | 142° |
| 2026-05-07 05:26 | 14.10238 | 121.63301 | 14276 ft | 362 kts | 142° |
| 2026-05-07 05:27 | 14.08234 | 121.64827 | 14503 ft | 362 kts | 142° |
| 2026-05-07 05:27 | 14.06200 | 121.66379 | 14611 ft | 364 kts | 142° |
| 2026-05-07 05:27 | 14.04165 | 121.67935 | 14781 ft | 364 kts | 142° |
| 2026-05-07 05:27 | 14.02125 | 121.69493 | 14858 ft | 367 kts | 142° |
| 2026-05-07 05:28 | 14.00092 | 121.71042 | 15041 ft | 366 kts | 142° |
| 2026-05-07 05:28 | 13.98043 | 121.72604 | 15192 ft | 366 kts | 142° |
| 2026-05-07 05:28 | 13.95989 | 121.74168 | 15342 ft | 365 kts | 141° |
| 2026-05-07 05:28 | 13.93971 | 121.75707 | 15418 ft | 366 kts | 142° |
| 2026-05-07 05:29 | 13.91914 | 121.77276 | 15471 ft | 368 kts | 142° |
| 2026-05-07 05:29 | 13.89850 | 121.78848 | 15614 ft | 367 kts | 142° |
| 2026-05-07 05:29 | 13.87794 | 121.80428 | 15663 ft | 369 kts | 140° |
| 2026-05-07 05:29 | 13.85912 | 121.82196 | 15717 ft | 369 kts | 131° |
| 2026-05-07 05:30 | 13.84245 | 121.84195 | 15822 ft | 368 kts | 128° |
| 2026-05-07 05:30 | 13.82603 | 121.86221 | 15930 ft | 367 kts | 128° |
| 2026-05-07 05:30 | 13.80954 | 121.88246 | 15959 ft | 370 kts | 128° |
| 2026-05-07 05:30 | 13.79295 | 121.90279 | 16029 ft | 370 kts | 129° |
| 2026-05-07 05:31 | 13.77658 | 121.92285 | 16087 ft | 371 kts | 128° |
| 2026-05-07 05:31 | 13.75995 | 121.94321 | 16168 ft | 370 kts | 128° |
| 2026-05-07 05:31 | 13.74333 | 121.96355 | 16265 ft | 370 kts | 128° |
| 2026-05-07 05:31 | 13.72676 | 121.98385 | 16319 ft | 371 kts | 129° |
| 2026-05-07 05:32 | 13.71008 | 122.00427 | 16389 ft | 372 kts | 129° |
| 2026-05-07 05:32 | 13.69358 | 122.02447 | 16443 ft | 372 kts | 129° |
| 2026-05-07 05:32 | 13.67689 | 122.04491 | 16525 ft | 372 kts | 128° |
| 2026-05-07 05:32 | 13.66020 | 122.06530 | 16614 ft | 372 kts | 128° |
| 2026-05-07 05:33 | 13.64368 | 122.08552 | 16634 ft | 374 kts | 129° |
| 2026-05-07 05:33 | 13.62684 | 122.10612 | 16663 ft | 375 kts | 129° |
| 2026-05-07 05:33 | 13.61000 | 122.12671 | 16706 ft | 375 kts | 129° |
| 2026-05-07 05:33 | 13.59334 | 122.14707 | 16763 ft | 376 kts | 129° |
| 2026-05-07 05:34 | 13.57651 | 122.16763 | 16818 ft | 376 kts | 129° |
| 2026-05-07 05:34 | 13.55959 | 122.18830 | 16876 ft | 376 kts | 129° |
| 2026-05-07 05:34 | 13.54271 | 122.20892 | 16923 ft | 377 kts | 129° |
| 2026-05-07 05:34 | 13.52597 | 122.22936 | 16965 ft | 377 kts | 129° |
| 2026-05-07 05:35 | 13.50903 | 122.25004 | 17014 ft | 377 kts | 129° |
| 2026-05-07 05:35 | 13.49209 | 122.27071 | 17062 ft | 377 kts | 129° |
| 2026-05-07 05:35 | 13.47517 | 122.29137 | 17104 ft | 378 kts | 129° |
| 2026-05-07 05:35 | 13.45842 | 122.31180 | 17152 ft | 378 kts | 129° |
| 2026-05-07 05:36 | 13.44148 | 122.33245 | 17395 ft | 371 kts | 129° |
| 2026-05-07 05:36 | 13.42520 | 122.35228 | 18115 ft | 351 kts | 128° |
| 2026-05-07 05:36 | 13.41005 | 122.37070 | 18770 ft | 331 kts | 128° |
| 2026-05-07 05:36 | 13.39561 | 122.38828 | 19435 ft | 309 kts | 128° |
| 2026-05-07 05:37 | 13.38217 | 122.40465 | 19850 ft | 299 kts | 128° |